createdAt,value
2023-05-21T00:01:07.354Z,4.35
2023-05-21T00:04:12.506Z,4.35
2023-05-21T00:07:16.169Z,4.03
2023-05-21T00:10:19.648Z,4.10
2023-05-21T00:13:22.916Z,4.22
2023-05-21T00:16:26.685Z,3.80
2023-05-21T00:19:30.099Z,4.90
2023-05-21T00:22:34.193Z,3.90
2023-05-21T00:25:37.524Z,4.55
2023-05-21T00:28:40.953Z,4.65
2023-05-21T00:31:44.451Z,3.88
2023-05-21T00:34:48.033Z,3.25
2023-05-21T00:37:52.701Z,3.75
2023-05-21T00:40:56.050Z,4.07
2023-05-21T00:44:01.069Z,3.20
2023-05-21T00:47:05.480Z,4.50
2023-05-21T00:50:09.662Z,3.90
2023-05-21T00:53:16.000Z,4.70
2023-05-21T00:56:22.097Z,4.63
2023-05-21T00:59:25.583Z,4.22
2023-05-21T01:02:29.001Z,4.55
2023-05-21T01:05:33.256Z,4.10
2023-05-21T01:08:38.284Z,4.15
2023-05-21T01:11:44.910Z,4.00
2023-05-21T01:14:49.374Z,4.25
2023-05-21T01:17:52.894Z,3.90
2023-05-21T01:20:56.231Z,4.07
2023-05-21T01:23:59.637Z,4.35
2023-05-21T01:27:04.607Z,4.38
2023-05-21T01:30:09.150Z,7.60
2023-05-21T01:33:29.755Z,4.30
2023-05-21T01:36:38.910Z,4.90
2023-05-21T01:39:45.730Z,4.10
2023-05-21T01:42:49.511Z,3.70
2023-05-21T01:45:57.057Z,5.03
2023-05-21T01:49:00.808Z,7.22
2023-05-21T01:52:05.597Z,5.78
2023-05-21T01:55:09.091Z,4.75
2023-05-21T01:58:12.416Z,2.78
2023-05-21T02:01:15.660Z,3.92
2023-05-21T02:04:18.938Z,3.30
2023-05-21T02:07:23.517Z,4.20
2023-05-21T02:13:30.103Z,3.13
2023-05-21T02:16:33.410Z,2.90
2023-05-21T02:19:36.943Z,2.92
2023-05-21T02:22:42.254Z,3.22
2023-05-21T02:25:46.431Z,3.15
2023-05-21T02:28:49.626Z,2.53
2023-05-21T02:31:53.032Z,2.72
2023-05-21T02:34:56.233Z,2.50
2023-05-21T02:37:59.850Z,2.47
2023-05-21T02:41:03.209Z,3.50
2023-05-21T02:44:07.143Z,2.90
2023-05-21T02:47:11.055Z,3.45
2023-05-21T02:50:15.566Z,3.60
2023-05-21T02:53:24.068Z,4.20
2023-05-21T02:56:27.817Z,2.67
2023-05-21T02:59:31.107Z,2.65
2023-05-21T03:02:34.555Z,2.83
2023-05-21T03:05:38.554Z,2.80
2023-05-21T03:08:41.900Z,2.87
2023-05-21T03:11:45.372Z,3.17
2023-05-21T03:14:50.031Z,3.05
2023-05-21T03:17:54.796Z,2.90
2023-05-21T03:20:59.693Z,2.97
2023-05-21T03:24:04.255Z,3.60
2023-05-21T03:30:11.711Z,2.90
2023-05-21T03:33:31.431Z,3.28
2023-05-21T03:36:36.234Z,3.00
2023-05-21T03:39:39.716Z,2.92
2023-05-21T03:42:43.276Z,2.97
2023-05-21T03:45:46.827Z,3.10
2023-05-21T03:49:10.404Z,2.97
2023-05-21T03:52:15.619Z,2.60
2023-05-21T03:55:18.843Z,2.80
2023-05-21T03:58:23.606Z,2.72
2023-05-21T04:01:28.954Z,16.63
2023-05-21T04:04:34.452Z,2.95
2023-05-21T04:07:39.019Z,4.72
2023-05-21T04:10:43.247Z,2.65
2023-05-21T04:13:46.848Z,3.20
2023-05-21T04:16:50.630Z,3.67
2023-05-21T04:19:54.244Z,2.80
2023-05-21T04:22:57.674Z,2.63
2023-05-21T04:26:01.077Z,2.50
2023-05-21T04:32:09.975Z,2.85
2023-05-21T04:35:15.877Z,2.70
2023-05-21T04:38:20.432Z,2.90
2023-05-21T04:41:23.819Z,2.75
2023-05-21T04:44:27.581Z,3.40
2023-05-21T04:47:30.976Z,2.90
2023-05-21T04:50:34.431Z,2.70
2023-05-21T04:53:37.690Z,2.80
2023-05-21T04:56:41.019Z,2.90
2023-05-21T04:59:44.455Z,2.67
2023-05-21T05:02:47.988Z,6.88
2023-05-21T05:05:52.314Z,2.90
2023-05-21T05:08:56.502Z,2.60
2023-05-21T05:12:02.620Z,2.42
2023-05-21T05:15:06.552Z,3.10
2023-05-21T05:18:10.053Z,2.88
2023-05-21T05:21:13.289Z,2.97
2023-05-21T05:24:17.221Z,2.20
2023-05-21T05:27:20.650Z,2.72
2023-05-21T05:30:24.018Z,2.70
2023-05-21T05:33:28.249Z,2.55
2023-05-21T05:36:32.137Z,2.00
2023-05-21T05:39:35.456Z,2.00
2023-05-21T05:42:39.794Z,2.15
2023-05-21T05:45:48.743Z,2.80
2023-05-21T05:48:52.155Z,2.28
2023-05-21T05:51:55.750Z,2.30
2023-05-21T05:54:59.124Z,2.13
2023-05-21T05:58:02.365Z,2.08
2023-05-21T06:01:09.467Z,2.25
2023-05-21T06:04:12.847Z,4.55
2023-05-21T06:07:16.084Z,1.90
2023-05-21T06:10:21.187Z,2.10
2023-05-21T06:13:24.639Z,2.25
2023-05-21T06:16:27.940Z,1.88
2023-05-21T06:19:31.416Z,2.85
2023-05-21T06:22:34.763Z,1.90
2023-05-21T06:25:39.203Z,2.97
2023-05-21T06:28:43.507Z,1.80
2023-05-21T06:31:47.080Z,2.20
2023-05-21T06:34:50.560Z,2.13
2023-05-21T06:37:55.759Z,2.72
2023-05-21T06:40:59.256Z,2.13
2023-05-21T06:44:25.325Z,2.70
2023-05-21T06:48:07.379Z,2.33
2023-05-21T06:51:10.765Z,2.22
2023-05-21T06:54:14.228Z,2.28
2023-05-21T06:57:18.435Z,2.30
2023-05-21T07:00:21.981Z,1.83
2023-05-21T07:03:25.441Z,1.80
2023-05-21T07:06:28.870Z,1.90
2023-05-21T07:09:32.924Z,2.22
2023-05-21T07:12:36.513Z,1.70
2023-05-21T07:15:40.657Z,2.13
2023-05-21T07:18:43.966Z,1.90
2023-05-21T07:21:47.829Z,1.90
2023-05-21T07:24:51.227Z,1.92
2023-05-21T07:27:54.528Z,2.20
2023-05-21T07:30:57.760Z,2.10
2023-05-21T07:34:08.100Z,3.13
2023-05-21T07:37:11.766Z,2.57
2023-05-21T07:40:15.503Z,2.30
2023-05-21T07:43:19.824Z,2.50
2023-05-21T07:46:23.276Z,1.55
2023-05-21T07:49:30.710Z,2.13
2023-05-21T07:52:35.057Z,2.15
2023-05-21T07:55:38.691Z,3.53
2023-05-21T07:58:42.208Z,3.87
2023-05-21T08:01:45.437Z,3.00
2023-05-21T08:04:48.716Z,2.53
2023-05-21T08:07:52.148Z,10.55
2023-05-21T08:14:02.625Z,2.63
2023-05-21T08:17:06.580Z,2.15
2023-05-21T08:20:10.597Z,2.10
2023-05-21T08:23:14.986Z,2.35
2023-05-21T08:26:24.822Z,2.10
2023-05-21T08:29:28.165Z,2.30
2023-05-21T08:32:31.426Z,2.65
2023-05-21T08:35:35.550Z,2.85
2023-05-21T08:38:57.919Z,2.20
2023-05-21T08:42:32.948Z,2.47
2023-05-21T08:45:44.731Z,2.28
2023-05-21T08:48:48.570Z,2.47
2023-05-21T08:51:53.406Z,2.05
2023-05-21T08:54:57.837Z,2.38
2023-05-21T08:58:02.098Z,2.17
2023-05-21T09:01:06.876Z,2.40
2023-05-21T09:04:20.842Z,2.40
2023-05-21T09:07:31.761Z,3.65
2023-05-21T09:10:54.777Z,3.13
2023-05-21T09:14:04.225Z,2.50
2023-05-21T09:17:30.494Z,2.40
2023-05-21T09:20:42.931Z,2.70
2023-05-21T09:26:50.006Z,2.88
2023-05-21T09:29:53.547Z,3.10
2023-05-21T09:33:01.386Z,2.90
2023-05-21T09:36:08.966Z,2.22
2023-05-21T09:39:17.012Z,2.30
2023-05-21T09:42:22.644Z,2.25
2023-05-21T09:45:28.896Z,3.17
2023-05-21T09:48:35.880Z,2.72
2023-05-21T09:51:40.710Z,2.70
2023-05-21T09:54:43.941Z,2.60
2023-05-21T09:57:50.577Z,2.30
2023-05-21T10:00:54.222Z,2.47
2023-05-21T10:03:59.476Z,2.22
2023-05-21T10:07:03.103Z,2.58
2023-05-21T10:10:10.720Z,4.03
2023-05-21T10:13:19.217Z,3.90
2023-05-21T10:16:23.315Z,3.60
2023-05-21T10:19:27.852Z,2.97
2023-05-21T10:25:37.035Z,2.47
2023-05-21T10:28:41.099Z,3.03
2023-05-21T10:31:50.483Z,4.00
2023-05-21T10:34:55.443Z,4.68
2023-05-21T10:38:00.687Z,4.85
2023-05-21T10:41:05.670Z,2.78
2023-05-21T10:44:11.771Z,4.28
2023-05-21T10:47:24.068Z,4.00
2023-05-21T10:50:38.194Z,3.20
2023-05-21T10:54:06.243Z,4.85
2023-05-21T10:57:27.479Z,4.55
2023-05-21T11:00:32.353Z,5.75
2023-05-21T11:03:37.762Z,4.75
2023-05-21T11:06:41.428Z,5.28
2023-05-21T11:09:45.234Z,5.07
2023-05-21T11:13:20.432Z,5.68
2023-05-21T11:16:26.493Z,6.03
2023-05-21T11:19:38.317Z,4.95
2023-05-21T11:22:41.884Z,6.45
2023-05-21T11:25:45.282Z,6.30
2023-05-21T11:28:51.688Z,6.43
2023-05-21T11:32:06.232Z,5.40
2023-05-21T11:35:09.987Z,5.53
2023-05-21T11:38:13.353Z,5.90
2023-05-21T11:41:22.893Z,7.40
2023-05-21T11:44:42.680Z,6.80
2023-05-21T11:47:46.773Z,6.68
2023-05-21T11:50:50.513Z,5.55
2023-05-21T11:53:54.035Z,6.80
2023-05-21T11:56:57.978Z,6.82
2023-05-21T12:00:02.988Z,6.43
2023-05-21T12:03:17.275Z,6.60
2023-05-21T12:06:27.932Z,7.07
2023-05-21T12:09:31.571Z,6.97
2023-05-21T12:12:50.110Z,7.78
2023-05-21T12:15:58.007Z,7.35
2023-05-21T12:19:01.367Z,8.15
2023-05-21T12:22:05.769Z,7.88
2023-05-21T12:25:09.792Z,7.18
2023-05-21T12:28:13.239Z,7.60
2023-05-21T12:31:17.340Z,10.73
2023-05-21T12:34:40.270Z,7.90
2023-05-21T12:37:44.476Z,9.30
2023-05-21T12:40:47.924Z,9.60
2023-05-21T12:43:52.189Z,8.15
2023-05-21T12:46:55.388Z,8.40
2023-05-21T12:49:59.001Z,8.65
2023-05-21T12:53:02.422Z,6.00
2023-05-21T12:56:13.146Z,6.25
2023-05-21T12:59:16.543Z,8.80
2023-05-21T13:02:42.546Z,6.40
2023-05-21T13:05:46.797Z,8.65
2023-05-21T13:08:50.335Z,7.45
2023-05-21T13:11:53.546Z,6.60
2023-05-21T13:14:58.958Z,9.10
2023-05-21T13:18:02.206Z,10.55
2023-05-21T13:21:05.740Z,8.15
2023-05-21T13:24:09.099Z,7.53
2023-05-21T13:27:12.523Z,6.68
2023-05-21T13:30:16.334Z,9.82
2023-05-21T13:33:19.758Z,5.83
2023-05-21T13:36:23.254Z,7.30
2023-05-21T13:39:29.931Z,7.57
2023-05-21T13:42:33.650Z,9.23
2023-05-21T13:45:37.283Z,10.75
2023-05-21T13:48:40.873Z,6.93
2023-05-21T13:51:44.148Z,6.30
2023-05-21T13:54:47.463Z,7.30
2023-05-21T13:57:50.869Z,10.77
2023-05-21T14:00:54.652Z,5.95
2023-05-21T14:03:58.404Z,7.95
2023-05-21T14:07:01.933Z,6.55
2023-05-21T14:10:05.730Z,6.28
2023-05-21T14:13:19.093Z,5.60
2023-05-21T14:16:25.426Z,7.68
2023-05-21T14:19:31.182Z,6.63
2023-05-21T14:22:34.675Z,5.80
2023-05-21T14:25:38.431Z,5.03
2023-05-21T14:28:41.924Z,6.45
2023-05-21T14:31:45.243Z,6.15
2023-05-21T14:34:48.534Z,3.60
2023-05-21T14:37:51.806Z,4.38
2023-05-21T14:40:55.687Z,4.25
2023-05-21T14:43:58.989Z,3.77
2023-05-21T14:47:02.515Z,4.60
2023-05-21T14:50:07.226Z,3.67
2023-05-21T14:56:14.049Z,3.80
2023-05-21T14:59:17.316Z,4.00
2023-05-21T15:02:20.703Z,4.50
2023-05-21T15:05:24.613Z,5.60
2023-05-21T15:08:27.772Z,5.63
2023-05-21T15:11:31.099Z,7.65
2023-05-21T15:14:34.551Z,4.85
2023-05-21T15:17:38.066Z,2.63
2023-05-21T15:20:41.303Z,5.10
2023-05-21T15:23:44.562Z,4.13
2023-05-21T15:26:47.785Z,3.92
2023-05-21T15:29:51.341Z,2.70
2023-05-21T15:32:55.083Z,3.00
2023-05-21T15:35:58.577Z,3.58
2023-05-21T15:39:04.149Z,3.00
2023-05-21T15:42:09.575Z,2.83
2023-05-21T15:45:13.090Z,3.22
2023-05-21T15:48:20.726Z,3.22
2023-05-21T15:51:24.077Z,3.20
2023-05-21T15:54:31.054Z,2.95
2023-05-21T15:57:34.312Z,2.97
2023-05-21T16:00:37.672Z,3.50
2023-05-21T16:03:41.207Z,2.97
2023-05-21T16:06:44.505Z,3.00
2023-05-21T16:09:47.857Z,5.13
2023-05-21T16:12:51.168Z,3.55
2023-05-21T16:15:54.562Z,4.20
2023-05-21T16:18:57.849Z,3.50
2023-05-21T16:22:02.309Z,3.30
2023-05-21T16:25:06.268Z,3.10
2023-05-21T16:28:09.598Z,3.80
2023-05-21T16:31:13.679Z,3.70
2023-05-21T16:34:17.037Z,6.80
2023-05-21T16:37:20.293Z,3.30
2023-05-21T16:40:23.510Z,2.97
2023-05-21T16:43:26.746Z,3.25
2023-05-21T16:46:30.073Z,3.30
2023-05-21T16:49:33.365Z,2.83
2023-05-21T16:52:36.684Z,2.88
2023-05-21T16:55:40.640Z,2.90
2023-05-21T16:58:43.894Z,3.30
2023-05-21T17:01:50.511Z,2.88
2023-05-21T17:04:53.893Z,2.50
2023-05-21T17:07:57.311Z,2.50
2023-05-21T17:11:00.699Z,2.78
2023-05-21T17:14:03.999Z,2.63
2023-05-21T17:17:08.127Z,2.53
2023-05-21T17:20:12.286Z,2.70
2023-05-21T17:23:15.702Z,3.38
2023-05-21T17:26:18.947Z,2.53
2023-05-21T17:29:22.370Z,2.80
2023-05-21T17:32:25.614Z,2.30
2023-05-21T17:35:29.048Z,3.30
2023-05-21T17:38:32.273Z,2.72
2023-05-21T17:41:35.595Z,2.50
2023-05-21T17:44:38.800Z,2.38
2023-05-21T17:47:42.119Z,2.45
2023-05-21T17:50:47.585Z,2.13
2023-05-21T17:53:50.879Z,2.40
2023-05-21T17:56:54.125Z,2.55
2023-05-21T17:59:57.556Z,2.30
2023-05-21T18:03:00.851Z,2.10
2023-05-21T18:06:04.163Z,2.10
2023-05-21T18:09:14.967Z,2.00
2023-05-21T18:12:18.208Z,2.30
2023-05-21T18:15:21.564Z,2.10
2023-05-21T18:18:24.960Z,1.90
2023-05-21T18:21:28.220Z,1.88
2023-05-21T18:24:31.949Z,2.13
2023-05-21T18:27:35.153Z,1.90
2023-05-21T18:30:38.719Z,2.00
2023-05-21T18:33:42.528Z,2.35
2023-05-21T18:36:45.740Z,2.10
2023-05-21T18:39:48.965Z,2.10
2023-05-21T18:42:52.704Z,1.88
2023-05-21T18:45:56.244Z,2.40
2023-05-21T18:49:00.815Z,2.40
2023-05-21T18:52:04.872Z,2.40
2023-05-21T18:55:08.511Z,2.95
2023-05-21T18:58:11.785Z,2.50
2023-05-21T19:01:15.017Z,2.45
2023-05-21T19:04:19.892Z,2.30
2023-05-21T19:10:26.153Z,2.50
2023-05-21T19:13:30.154Z,2.30
2023-05-21T19:16:33.438Z,2.50
2023-05-21T19:19:36.908Z,2.22
2023-05-21T19:22:40.210Z,2.30
2023-05-21T19:25:43.654Z,2.30
2023-05-21T19:28:47.072Z,2.50
2023-05-21T19:31:50.382Z,2.30
2023-05-21T19:34:53.639Z,2.30
2023-05-21T19:38:01.318Z,3.65
2023-05-21T19:41:06.690Z,3.42
2023-05-21T19:44:10.902Z,3.10
2023-05-21T19:47:14.317Z,2.75
2023-05-21T19:50:18.965Z,2.47
2023-05-21T19:53:22.225Z,2.30
2023-05-21T19:56:25.643Z,2.30
2023-05-21T19:59:32.165Z,2.35
2023-05-21T20:02:35.989Z,2.40
2023-05-21T20:05:39.593Z,2.40
2023-05-21T20:08:42.887Z,3.20
2023-05-21T20:11:46.383Z,2.60
2023-05-21T20:14:50.283Z,2.50
2023-05-21T20:17:54.326Z,2.38
2023-05-21T20:20:57.710Z,2.30
2023-05-21T20:24:01.328Z,2.45
2023-05-21T20:27:04.641Z,2.55
2023-05-21T20:30:09.244Z,2.08
2023-05-21T20:33:14.288Z,2.30
2023-05-21T20:36:18.502Z,2.35
2023-05-21T20:39:23.603Z,2.40
2023-05-21T20:42:29.096Z,11.23
2023-05-21T20:45:34.161Z,3.53
2023-05-21T20:48:38.404Z,2.55
2023-05-21T20:51:42.203Z,2.42
2023-05-21T20:54:47.254Z,2.45
2023-05-21T20:57:52.042Z,2.45
2023-05-21T21:00:56.163Z,2.67
2023-05-21T21:04:03.819Z,2.58
2023-05-21T21:07:08.776Z,2.67
2023-05-21T21:10:12.626Z,7.15
2023-05-21T21:13:16.511Z,2.65
2023-05-21T21:16:19.886Z,4.40
2023-05-21T21:19:23.251Z,3.08
2023-05-21T21:22:27.072Z,2.25
2023-05-21T21:25:30.278Z,2.63
2023-05-21T21:28:33.468Z,2.60
2023-05-21T21:31:36.730Z,2.80
2023-05-21T21:34:39.935Z,2.50
2023-05-21T21:37:43.102Z,2.50
2023-05-21T21:40:46.543Z,2.80
2023-05-21T21:43:49.795Z,2.50
2023-05-21T21:46:53.018Z,2.78
2023-05-21T21:49:56.679Z,2.47
2023-05-21T21:53:00.503Z,2.58
2023-05-21T21:56:03.747Z,2.63
2023-05-21T21:59:06.964Z,2.75
2023-05-21T22:02:10.447Z,2.83
2023-05-21T22:05:16.832Z,2.90
2023-05-21T22:08:20.371Z,3.00
2023-05-21T22:11:23.722Z,3.00
2023-05-21T22:14:27.041Z,3.13
2023-05-21T22:17:30.336Z,3.10
2023-05-21T22:20:36.363Z,3.00
2023-05-21T22:23:39.914Z,3.20
2023-05-21T22:26:43.139Z,3.10
2023-05-21T22:29:46.316Z,2.90
2023-05-21T22:32:49.807Z,2.90
2023-05-21T22:35:53.063Z,2.80
2023-05-21T22:38:56.427Z,2.80
2023-05-21T22:42:00.235Z,2.83
2023-05-21T22:45:04.405Z,2.75
2023-05-21T22:48:07.908Z,2.80
2023-05-21T22:51:12.004Z,2.67
2023-05-21T22:54:15.225Z,3.05
2023-05-21T22:57:18.385Z,3.40
2023-05-21T23:00:21.874Z,3.03
2023-05-21T23:06:28.051Z,2.88
2023-05-21T23:09:31.320Z,2.97
2023-05-21T23:12:34.587Z,3.20
2023-05-21T23:15:39.427Z,2.83
2023-05-21T23:18:42.791Z,2.80
2023-05-21T23:21:46.144Z,3.15
2023-05-21T23:27:52.627Z,2.97
2023-05-21T23:33:58.858Z,2.70
2023-05-21T23:40:05.276Z,2.45
2023-05-21T23:43:08.687Z,2.30
2023-05-21T23:46:11.949Z,2.40
2023-05-21T23:49:15.365Z,2.90
2023-05-21T23:52:19.108Z,2.60
2023-05-21T23:55:23.249Z,2.80
2023-05-21T23:58:27.415Z,4.13
